createdAt,value
2023-02-03T00:00:13.852Z,1016.57
2023-02-03T00:01:13.842Z,1016.58
2023-02-03T00:02:13.879Z,1016.55
2023-02-03T00:03:13.861Z,1016.53
2023-02-03T00:04:13.838Z,1016.50
2023-02-03T00:05:13.796Z,1016.51
2023-02-03T00:06:13.794Z,1016.43
2023-02-03T00:07:13.785Z,1016.43
2023-02-03T00:08:13.768Z,1016.47
2023-02-03T00:09:13.769Z,1016.43
2023-02-03T00:10:13.761Z,1016.42
2023-02-03T00:11:13.732Z,1016.40
2023-02-03T00:12:13.725Z,1016.37
2023-02-03T00:13:13.729Z,1016.35
2023-02-03T00:14:13.703Z,1016.36
2023-02-03T00:15:13.722Z,1016.32
2023-02-03T00:16:13.749Z,1016.26
2023-02-03T00:17:13.667Z,1016.22
2023-02-03T00:18:13.661Z,1016.26
2023-02-03T00:19:14.725Z,1016.25
2023-02-03T00:20:13.653Z,1016.24
2023-02-03T00:21:13.624Z,1016.21
2023-02-03T00:22:13.617Z,1016.20
2023-02-03T00:23:13.605Z,1016.20
2023-02-03T00:24:13.596Z,1016.15
2023-02-03T00:25:13.592Z,1016.08
2023-02-03T00:26:13.580Z,1016.07
2023-02-03T00:27:13.564Z,1016.04
2023-02-03T00:28:13.636Z,1015.95
2023-02-03T00:29:13.564Z,1015.99
2023-02-03T00:30:13.561Z,1016.00
2023-02-03T00:31:13.594Z,1015.94
2023-02-03T00:32:13.637Z,1015.86
2023-02-03T00:33:13.495Z,1015.84
2023-02-03T00:34:13.490Z,1015.78
2023-02-03T00:35:13.486Z,1015.81
2023-02-03T00:36:13.480Z,1015.73
2023-02-03T00:37:13.455Z,1015.76
2023-02-03T00:38:13.442Z,1015.72
2023-02-03T00:39:13.432Z,1015.73
2023-02-03T00:40:13.434Z,1015.73
2023-02-03T00:41:13.419Z,1015.69
2023-02-03T00:42:13.399Z,1015.69
2023-02-03T00:43:13.391Z,1015.63
2023-02-03T00:44:13.393Z,1015.52
2023-02-03T00:45:13.398Z,1015.45
2023-02-03T00:46:13.397Z,1015.41
2023-02-03T00:47:13.379Z,1015.36
2023-02-03T00:48:13.343Z,1015.35
2023-02-03T00:49:13.322Z,1015.32
2023-02-03T00:50:13.437Z,1015.29
2023-02-03T00:51:13.301Z,1015.35
2023-02-03T00:52:13.296Z,1015.35
2023-02-03T00:53:13.282Z,1015.40
2023-02-03T00:54:13.313Z,1015.42
2023-02-03T00:55:13.277Z,1015.41
2023-02-03T00:56:13.256Z,1015.41
2023-02-03T00:57:13.239Z,1015.36
2023-02-03T00:58:13.226Z,1015.37
2023-02-03T00:59:13.215Z,1015.37
2023-02-03T01:00:13.223Z,1015.37
2023-02-03T01:01:13.303Z,1015.38
2023-02-03T01:02:13.272Z,1015.42
2023-02-03T01:03:13.177Z,1015.36
2023-02-03T01:04:13.161Z,1015.30
2023-02-03T01:05:13.180Z,1015.28
2023-02-03T01:06:13.144Z,1015.30
2023-02-03T01:07:13.131Z,1015.30
2023-02-03T01:08:13.116Z,1015.25
2023-02-03T01:09:13.106Z,1015.20
2023-02-03T01:10:13.121Z,1015.18
2023-02-03T01:11:13.087Z,1015.15
2023-02-03T01:12:13.074Z,1015.15
2023-02-03T01:13:13.086Z,1015.11
2023-02-03T01:14:13.112Z,1015.11
2023-02-03T01:15:13.068Z,1015.13
2023-02-03T01:16:13.137Z,1015.16
2023-02-03T01:17:13.053Z,1015.12
2023-02-03T01:18:13.019Z,1015.12
2023-02-03T01:19:13.032Z,1015.12
2023-02-03T01:20:13.020Z,1015.11
2023-02-03T01:21:13.006Z,1015.06
2023-02-03T01:22:12.978Z,1015.02
2023-02-03T01:23:12.958Z,1015.00
2023-02-03T01:24:12.947Z,1014.97
2023-02-03T01:25:12.985Z,1014.93
2023-02-03T01:26:12.929Z,1014.90
2023-02-03T01:27:12.937Z,1014.90
2023-02-03T01:28:12.921Z,1014.91
2023-02-03T01:29:12.893Z,1014.93
2023-02-03T01:30:12.899Z,1014.91
2023-02-03T01:31:13.007Z,1014.92
2023-02-03T01:32:12.876Z,1014.85
2023-02-03T01:33:12.870Z,1014.84
2023-02-03T01:34:12.841Z,1014.78
2023-02-03T01:35:12.881Z,1014.75
2023-02-03T01:36:12.841Z,1014.67
2023-02-03T01:37:12.852Z,1014.60
2023-02-03T01:38:12.794Z,1014.59
2023-02-03T01:39:12.790Z,1014.58
2023-02-03T01:40:12.797Z,1014.56
2023-02-03T01:41:12.803Z,1014.53
2023-02-03T01:42:12.758Z,1014.61
2023-02-03T01:43:12.742Z,1014.54
2023-02-03T01:44:12.734Z,1014.57
2023-02-03T01:45:13.692Z,1014.54
2023-02-03T01:46:12.777Z,1014.54
2023-02-03T01:47:12.717Z,1014.52
2023-02-03T01:48:12.695Z,1014.40
2023-02-03T01:49:12.710Z,1014.45
2023-02-03T01:50:12.702Z,1014.38
2023-02-03T01:51:12.657Z,1014.30
2023-02-03T01:52:12.649Z,1014.28
2023-02-03T01:53:12.631Z,1014.19
2023-02-03T01:54:12.624Z,1014.19
2023-02-03T01:55:12.647Z,1014.14
2023-02-03T01:56:12.610Z,1014.08
2023-02-03T01:57:12.591Z,1014.04
2023-02-03T01:58:12.617Z,1014.02
2023-02-03T01:59:12.568Z,1014.01
2023-02-03T02:00:12.572Z,1014.01
2023-02-03T02:01:12.610Z,1013.99
2023-02-03T02:02:12.610Z,1014.00
2023-02-03T02:03:12.540Z,1013.98
2023-02-03T02:04:12.520Z,1014.02
2023-02-03T02:05:12.530Z,1013.97
2023-02-03T02:06:12.496Z,1013.99
2023-02-03T02:07:12.483Z,1013.98
2023-02-03T02:08:12.472Z,1014.02
2023-02-03T02:09:12.458Z,1013.95
2023-02-03T02:10:12.531Z,1013.94
2023-02-03T02:11:12.439Z,1013.92
2023-02-03T02:12:12.426Z,1013.90
2023-02-03T02:13:12.419Z,1013.81
2023-02-03T02:14:12.411Z,1013.81
2023-02-03T02:15:12.434Z,1013.75
2023-02-03T02:16:12.498Z,1013.74
2023-02-03T02:17:12.374Z,1013.67
2023-02-03T02:18:13.215Z,1013.63
2023-02-03T02:19:12.353Z,1013.65
2023-02-03T02:20:12.361Z,1013.59
2023-02-03T02:21:12.379Z,1013.61
2023-02-03T02:22:12.322Z,1013.54
2023-02-03T02:23:12.311Z,1013.50
2023-02-03T02:24:12.302Z,1013.50
2023-02-03T02:25:12.332Z,1013.38
2023-02-03T02:26:12.277Z,1013.42
2023-02-03T02:27:12.293Z,1013.36
2023-02-03T02:28:12.352Z,1013.29
2023-02-03T02:29:12.249Z,1013.34
2023-02-03T02:30:12.247Z,1013.26
2023-02-03T02:31:12.347Z,1013.25
2023-02-03T02:32:12.212Z,1013.17
2023-02-03T02:33:12.222Z,1013.10
2023-02-03T02:34:12.197Z,1013.08
2023-02-03T02:35:12.188Z,1013.01
2023-02-03T02:36:12.172Z,1013.02
2023-02-03T02:37:12.202Z,1012.95
2023-02-03T02:38:12.208Z,1012.89
2023-02-03T02:39:12.162Z,1012.86
2023-02-03T02:40:12.143Z,1012.82
2023-02-03T02:41:12.111Z,1012.75
2023-02-03T02:42:12.110Z,1012.77
2023-02-03T02:43:12.095Z,1012.74
2023-02-03T02:44:12.083Z,1012.73
2023-02-03T02:45:12.085Z,1012.68
2023-02-03T02:46:12.091Z,1012.65
2023-02-03T02:47:12.052Z,1012.62
2023-02-03T02:48:12.049Z,1012.58
2023-02-03T02:49:12.028Z,1012.56
2023-02-03T02:50:12.053Z,1012.56
2023-02-03T02:51:12.008Z,1012.52
2023-02-03T02:52:11.999Z,1012.50
2023-02-03T02:53:12.011Z,1012.50
2023-02-03T02:54:11.979Z,1012.44
2023-02-03T02:55:11.989Z,1012.42
2023-02-03T02:56:12.076Z,1012.46
2023-02-03T02:57:11.957Z,1012.39
2023-02-03T02:58:11.936Z,1012.40
2023-02-03T02:59:11.917Z,1012.36
2023-02-03T03:00:11.937Z,1012.34
2023-02-03T03:01:11.932Z,1012.34
2023-02-03T03:02:11.890Z,1012.31
2023-02-03T03:03:11.878Z,1012.30
2023-02-03T03:04:11.868Z,1012.29
2023-02-03T03:05:11.971Z,1012.19
2023-02-03T03:06:11.843Z,1012.18
2023-02-03T03:07:11.838Z,1012.16
2023-02-03T03:08:11.827Z,1012.14
2023-02-03T03:09:11.832Z,1012.07
2023-02-03T03:10:11.827Z,1012.13
2023-02-03T03:11:11.791Z,1012.15
2023-02-03T03:12:11.776Z,1012.11
2023-02-03T03:13:11.766Z,1012.16
2023-02-03T03:14:11.757Z,1012.12
2023-02-03T03:15:11.763Z,1012.12
2023-02-03T03:16:11.818Z,1012.12
2023-02-03T03:17:11.725Z,1012.08
2023-02-03T03:18:11.709Z,1012.03
2023-02-03T03:19:11.711Z,1011.99
2023-02-03T03:20:11.700Z,1011.97
2023-02-03T03:21:11.690Z,1011.90
2023-02-03T03:22:11.695Z,1011.92
2023-02-03T03:23:11.674Z,1011.90
2023-02-03T03:24:11.644Z,1011.79
2023-02-03T03:25:11.656Z,1011.75
2023-02-03T03:26:11.672Z,1011.68
2023-02-03T03:27:11.621Z,1011.72
2023-02-03T03:28:11.720Z,1011.70
2023-02-03T03:29:11.591Z,1011.65
2023-02-03T03:30:11.587Z,1011.60
2023-02-03T03:31:11.809Z,1011.56
2023-02-03T03:32:11.559Z,1011.50
2023-02-03T03:33:11.557Z,1011.48
2023-02-03T03:34:11.544Z,1011.48
2023-02-03T03:35:11.530Z,1011.39
2023-02-03T03:36:11.622Z,1011.35
2023-02-03T03:37:11.530Z,1011.40
2023-02-03T03:38:11.505Z,1011.32
2023-02-03T03:39:11.489Z,1011.31
2023-02-03T03:40:11.487Z,1011.38
2023-02-03T03:41:11.580Z,1011.30
2023-02-03T03:42:11.457Z,1011.26
2023-02-03T03:43:11.443Z,1011.19
2023-02-03T03:44:11.426Z,1011.25
2023-02-03T03:45:11.420Z,1011.27
2023-02-03T03:46:11.778Z,1011.28
2023-02-03T03:47:11.414Z,1011.30
2023-02-03T03:48:11.384Z,1011.30
2023-02-03T03:49:11.379Z,1011.27
2023-02-03T03:50:11.369Z,1011.28
2023-02-03T03:51:11.377Z,1011.25
2023-02-03T03:52:11.366Z,1011.24
2023-02-03T03:53:11.360Z,1011.22
2023-02-03T03:54:11.386Z,1011.14
2023-02-03T03:55:11.336Z,1011.19
2023-02-03T03:56:11.321Z,1011.20
2023-02-03T03:57:11.319Z,1011.18
2023-02-03T03:58:11.283Z,1011.13
2023-02-03T03:59:11.268Z,1011.07
2023-02-03T04:00:11.279Z,1011.07
2023-02-03T04:01:11.358Z,1011.01
2023-02-03T04:02:11.443Z,1010.99
2023-02-03T04:03:11.297Z,1010.99
2023-02-03T04:04:11.218Z,1011.06
2023-02-03T04:05:11.203Z,1011.02
2023-02-03T04:06:11.212Z,1011.08
2023-02-03T04:07:11.186Z,1011.12
2023-02-03T04:08:17.730Z,1011.11
2023-02-03T04:09:11.157Z,1011.12
2023-02-03T04:10:11.148Z,1011.09
2023-02-03T04:11:11.185Z,1011.04
2023-02-03T04:12:11.125Z,1010.91
2023-02-03T04:13:11.156Z,1010.92
2023-02-03T04:14:11.103Z,1010.78
2023-02-03T04:15:11.097Z,1010.78
2023-02-03T04:16:11.154Z,1010.78
2023-02-03T04:17:11.077Z,1010.74
2023-02-03T04:18:11.070Z,1010.77
2023-02-03T04:19:11.053Z,1010.78
2023-02-03T04:20:11.041Z,1010.74
2023-02-03T04:21:11.042Z,1010.67
2023-02-03T04:22:11.019Z,1010.63
2023-02-03T04:23:11.007Z,1010.52
2023-02-03T04:24:10.999Z,1010.50
2023-02-03T04:25:10.986Z,1010.47
2023-02-03T04:26:10.993Z,1010.46
2023-02-03T04:27:10.967Z,1010.44
2023-02-03T04:28:11.025Z,1010.37
2023-02-03T04:29:10.975Z,1010.34
2023-02-03T04:30:10.937Z,1010.31
2023-02-03T04:31:11.122Z,1010.32
2023-02-03T04:32:10.973Z,1010.30
2023-02-03T04:33:10.913Z,1010.29
2023-02-03T04:34:10.889Z,1010.32
2023-02-03T04:35:10.881Z,1010.41
2023-02-03T04:36:10.881Z,1010.36
2023-02-03T04:37:10.865Z,1010.34
2023-02-03T04:38:10.847Z,1010.31
2023-02-03T04:39:10.840Z,1010.31
2023-02-03T04:40:10.823Z,1010.29
2023-02-03T04:41:10.835Z,1010.27
2023-02-03T04:42:10.801Z,1010.15
2023-02-03T04:43:10.794Z,1010.10
2023-02-03T04:44:10.785Z,1010.11
2023-02-03T04:45:10.848Z,1010.06
2023-02-03T04:46:10.795Z,1009.95
2023-02-03T04:47:10.773Z,1010.01
2023-02-03T04:48:10.737Z,1010.05
2023-02-03T04:49:10.732Z,1009.99
2023-02-03T04:50:10.754Z,1009.91
2023-02-03T04:51:10.717Z,1009.90
2023-02-03T04:52:10.705Z,1009.83
2023-02-03T04:53:10.690Z,1009.84
2023-02-03T04:54:10.673Z,1009.74
2023-02-03T04:55:10.667Z,1009.73
2023-02-03T04:56:10.667Z,1009.73
2023-02-03T04:57:10.643Z,1009.75
2023-02-03T04:58:10.644Z,1009.70
2023-02-03T04:59:10.621Z,1009.67
2023-02-03T05:00:10.609Z,1009.65
2023-02-03T05:01:10.797Z,1009.62
2023-02-03T05:02:10.592Z,1009.64
2023-02-03T05:03:10.605Z,1009.68
2023-02-03T05:04:10.570Z,1009.69
2023-02-03T05:05:10.559Z,1009.70
2023-02-03T05:06:10.574Z,1009.67
2023-02-03T05:07:10.539Z,1009.60
2023-02-03T05:08:10.528Z,1009.65
2023-02-03T05:09:10.537Z,1009.64
2023-02-03T05:10:10.518Z,1009.66
2023-02-03T05:11:10.515Z,1009.64
2023-02-03T05:12:10.477Z,1009.65
2023-02-03T05:13:10.468Z,1009.59
2023-02-03T05:14:10.459Z,1009.58
2023-02-03T05:15:10.451Z,1009.54
2023-02-03T05:16:10.508Z,1009.55
2023-02-03T05:17:10.445Z,1009.54
2023-02-03T05:18:10.414Z,1009.50
2023-02-03T05:19:10.409Z,1009.46
2023-02-03T05:20:10.396Z,1009.46
2023-02-03T05:21:10.422Z,1009.41
2023-02-03T05:22:10.427Z,1009.42
2023-02-03T05:23:10.361Z,1009.47
2023-02-03T05:24:10.388Z,1009.44
2023-02-03T05:25:10.339Z,1009.47
2023-02-03T05:26:10.342Z,1009.44
2023-02-03T05:27:10.319Z,1009.41
2023-02-03T05:28:10.368Z,1009.37
2023-02-03T05:29:10.301Z,1009.35
2023-02-03T05:30:10.292Z,1009.35
2023-02-03T05:31:10.329Z,1009.36
2023-02-03T05:32:10.292Z,1009.29
2023-02-03T05:33:10.280Z,1009.23
2023-02-03T05:34:10.247Z,1009.19
2023-02-03T05:35:10.242Z,1009.23
2023-02-03T05:36:10.233Z,1009.28
2023-02-03T05:37:10.221Z,1009.27
2023-02-03T05:38:10.201Z,1009.29
2023-02-03T05:39:10.204Z,1009.17
2023-02-03T05:40:10.189Z,1009.16
2023-02-03T05:41:10.180Z,1009.14
2023-02-03T05:42:10.156Z,1009.13
2023-02-03T05:43:10.151Z,1009.13
2023-02-03T05:44:10.134Z,1009.10
2023-02-03T05:45:10.126Z,1009.12
2023-02-03T05:46:10.188Z,1009.09
2023-02-03T05:47:10.102Z,1009.10
2023-02-03T05:48:10.099Z,1009.03
2023-02-03T05:49:10.102Z,1009.07
2023-02-03T05:50:10.076Z,1008.98
2023-02-03T05:51:10.086Z,1008.95
2023-02-03T05:52:10.053Z,1008.95
2023-02-03T05:53:10.039Z,1008.89
2023-02-03T05:54:10.047Z,1008.86
2023-02-03T05:55:10.021Z,1008.77
2023-02-03T05:56:10.017Z,1008.82
2023-02-03T05:57:10.000Z,1008.79
2023-02-03T05:58:09.982Z,1008.80
2023-02-03T05:59:09.988Z,1008.76
2023-02-03T06:00:09.973Z,1008.79
2023-02-03T06:01:09.963Z,1008.79
2023-02-03T06:02:09.941Z,1008.72
2023-02-03T06:03:09.966Z,1008.75
2023-02-03T06:04:10.100Z,1008.74
2023-02-03T06:05:09.987Z,1008.70
2023-02-03T06:06:09.909Z,1008.60
2023-02-03T06:07:09.888Z,1008.60
2023-02-03T06:08:09.880Z,1008.43
2023-02-03T06:09:09.864Z,1008.44
2023-02-03T06:10:09.868Z,1008.40
2023-02-03T06:11:09.868Z,1008.34
2023-02-03T06:12:09.829Z,1008.36
2023-02-03T06:13:09.819Z,1008.37
2023-02-03T06:14:09.819Z,1008.37
2023-02-03T06:15:09.799Z,1008.29
2023-02-03T06:16:09.976Z,1008.30
2023-02-03T06:17:09.775Z,1008.29
2023-02-03T06:18:09.775Z,1008.30
2023-02-03T06:19:09.761Z,1008.34
2023-02-03T06:20:09.757Z,1008.31
2023-02-03T06:21:09.762Z,1008.33
2023-02-03T06:22:09.723Z,1008.29
2023-02-03T06:23:09.715Z,1008.25
2023-02-03T06:24:09.762Z,1008.24
2023-02-03T06:25:11.914Z,1008.28
2023-02-03T06:26:09.689Z,1008.29
2023-02-03T06:27:09.711Z,1008.23
2023-02-03T06:28:09.722Z,1008.23
2023-02-03T06:29:09.649Z,1008.24
2023-02-03T06:30:09.643Z,1008.18
2023-02-03T06:31:09.765Z,1008.18
2023-02-03T06:32:09.627Z,1008.24
2023-02-03T06:33:09.609Z,1008.19
2023-02-03T06:34:09.589Z,1008.21
2023-02-03T06:35:09.588Z,1008.22
2023-02-03T06:36:09.568Z,1008.22
2023-02-03T06:37:09.601Z,1008.23
2023-02-03T06:38:09.546Z,1008.34
2023-02-03T06:39:09.546Z,1008.30
2023-02-03T06:40:09.526Z,1008.23
2023-02-03T06:41:09.526Z,1008.21
2023-02-03T06:42:09.526Z,1008.15
2023-02-03T06:43:09.496Z,1008.18
2023-02-03T06:44:09.487Z,1008.22
2023-02-03T06:45:09.479Z,1008.26
2023-02-03T06:46:09.508Z,1008.18
2023-02-03T06:47:09.467Z,1008.18
2023-02-03T06:48:09.439Z,1008.17
2023-02-03T06:49:09.431Z,1008.05
2023-02-03T06:50:09.435Z,1008.01
2023-02-03T06:51:09.409Z,1008.06
2023-02-03T06:52:09.411Z,1008.04
2023-02-03T06:53:09.407Z,1007.94
2023-02-03T06:54:09.376Z,1007.95
2023-02-03T06:55:09.373Z,1007.89
2023-02-03T06:56:09.351Z,1007.83
2023-02-03T06:57:09.363Z,1007.88
2023-02-03T06:58:09.330Z,1007.91
2023-02-03T06:59:09.323Z,1007.90
2023-02-03T07:00:09.335Z,1007.98
2023-02-03T07:01:09.321Z,1007.96
2023-02-03T07:02:09.298Z,1007.86
2023-02-03T07:03:09.277Z,1007.83
2023-02-03T07:04:09.302Z,1007.76
2023-02-03T07:05:09.273Z,1007.76
2023-02-03T07:06:09.249Z,1007.81
2023-02-03T07:07:09.250Z,1007.71
2023-02-03T07:08:09.253Z,1007.67
2023-02-03T07:09:09.235Z,1007.71
2023-02-03T07:10:09.217Z,1007.71
2023-02-03T07:11:09.212Z,1007.68
2023-02-03T07:12:09.194Z,1007.75
2023-02-03T07:13:09.173Z,1007.62
2023-02-03T07:14:09.177Z,1007.52
2023-02-03T07:15:09.157Z,1007.51
2023-02-03T07:16:09.238Z,1007.48
2023-02-03T07:17:09.145Z,1007.48
2023-02-03T07:18:09.141Z,1007.46
2023-02-03T07:19:09.107Z,1007.48
2023-02-03T07:20:09.105Z,1007.42
2023-02-03T07:21:09.115Z,1007.29
2023-02-03T07:22:09.087Z,1007.39
2023-02-03T07:23:16.784Z,1007.40
2023-02-03T07:24:09.049Z,1007.40
2023-02-03T07:25:58.965Z,1007.36
2023-02-03T07:26:58.956Z,1007.33
2023-02-03T07:27:59.011Z,1007.30
2023-02-03T07:28:58.916Z,1007.27
2023-02-03T07:29:58.931Z,1007.16
2023-02-03T07:30:58.995Z,1007.18
2023-02-03T07:31:59.063Z,1007.16
2023-02-03T07:32:58.873Z,1007.13
2023-02-03T07:33:58.868Z,1007.06
2023-02-03T07:34:58.855Z,1007.08
2023-02-03T07:35:58.841Z,1007.11
2023-02-03T07:36:58.858Z,1007.06
2023-02-03T07:37:58.844Z,1007.04
2023-02-03T07:38:58.818Z,1007.02
2023-02-03T07:39:58.811Z,1007.01
2023-02-03T07:40:58.790Z,1006.93
2023-02-03T07:41:58.811Z,1006.90
2023-02-03T07:42:58.764Z,1006.85
2023-02-03T07:43:58.756Z,1006.87
2023-02-03T07:44:58.744Z,1006.90
2023-02-03T07:45:58.737Z,1006.86
2023-02-03T07:46:58.734Z,1006.84
2023-02-03T07:47:58.717Z,1006.87
2023-02-03T07:48:58.702Z,1006.84
2023-02-03T07:49:58.691Z,1006.83
2023-02-03T07:50:58.678Z,1006.76
2023-02-03T07:51:58.680Z,1006.70
2023-02-03T07:52:58.657Z,1006.77
2023-02-03T07:53:58.647Z,1006.66
2023-02-03T07:54:58.643Z,1006.66
2023-02-03T07:56:13.552Z,1006.68
2023-02-03T07:56:58.621Z,1006.72
2023-02-03T07:57:58.622Z,1006.70
2023-02-03T07:58:58.592Z,1006.67
2023-02-03T07:59:58.587Z,1006.61
2023-02-03T08:00:58.571Z,1006.60
2023-02-03T08:01:58.598Z,1006.59
2023-02-03T08:02:58.564Z,1006.62
2023-02-03T08:03:58.538Z,1006.58
2023-02-03T08:04:58.595Z,1006.54
2023-02-03T08:05:58.541Z,1006.51
2023-02-03T08:06:58.528Z,1006.58
2023-02-03T08:07:58.505Z,1006.55
2023-02-03T08:08:58.483Z,1006.52
2023-02-03T08:09:58.474Z,1006.41
2023-02-03T08:10:58.462Z,1006.44
2023-02-03T08:11:58.473Z,1006.34
2023-02-03T08:12:58.445Z,1006.37
2023-02-03T08:13:58.465Z,1006.34
2023-02-03T08:14:58.425Z,1006.30
2023-02-03T08:15:58.440Z,1006.33
2023-02-03T08:16:58.409Z,1006.28
2023-02-03T08:17:58.413Z,1006.25
2023-02-03T08:18:58.379Z,1006.25
2023-02-03T08:19:58.367Z,1006.14
2023-02-03T08:20:58.418Z,1006.16
2023-02-03T08:21:58.386Z,1006.11
2023-02-03T08:22:58.335Z,1006.15
2023-02-03T08:23:58.323Z,1006.21
2023-02-03T08:24:58.313Z,1006.10
2023-02-03T08:25:58.334Z,1006.19
2023-02-03T08:26:58.304Z,1006.16
2023-02-03T08:27:58.311Z,1006.09
2023-02-03T08:28:58.283Z,1006.10
2023-02-03T08:29:58.281Z,1006.06
2023-02-03T08:30:58.344Z,1006.03
2023-02-03T08:31:58.330Z,1006.00
2023-02-03T08:32:58.245Z,1006.05
2023-02-03T08:33:58.239Z,1006.04
2023-02-03T08:34:58.208Z,1005.96
2023-02-03T08:35:58.203Z,1005.99
2023-02-03T08:36:58.208Z,1005.98
2023-02-03T08:37:58.186Z,1005.91
2023-02-03T08:38:58.161Z,1005.93
2023-02-03T08:39:58.152Z,1005.85
2023-02-03T08:40:58.138Z,1005.92
2023-02-03T08:41:58.139Z,1005.91
2023-02-03T08:42:58.125Z,1005.89
2023-02-03T08:43:58.110Z,1005.82
2023-02-03T08:44:58.096Z,1005.87
2023-02-03T08:45:58.140Z,1005.93
2023-02-03T08:46:58.085Z,1005.83
2023-02-03T08:47:58.064Z,1005.82
2023-02-03T08:48:58.079Z,1005.79
2023-02-03T08:49:58.049Z,1005.75
2023-02-03T08:50:58.037Z,1005.73
2023-02-03T08:51:58.037Z,1005.61
2023-02-03T08:52:58.037Z,1005.69
2023-02-03T08:53:58.009Z,1005.65
2023-02-03T08:54:57.990Z,1005.69
2023-02-03T08:55:57.977Z,1005.65
2023-02-03T08:56:57.988Z,1005.65
2023-02-03T08:57:57.959Z,1005.58
2023-02-03T08:58:57.943Z,1005.63
2023-02-03T08:59:57.942Z,1005.62
2023-02-03T09:00:57.971Z,1005.53
2023-02-03T09:01:58.066Z,1005.64
2023-02-03T09:02:57.902Z,1005.58
2023-02-03T09:03:57.892Z,1005.62
2023-02-03T09:04:58.051Z,1005.60
2023-02-03T09:05:57.870Z,1005.51
2023-02-03T09:06:57.891Z,1005.56
2023-02-03T09:07:57.850Z,1005.53
2023-02-03T09:08:57.839Z,1005.48
2023-02-03T09:09:57.829Z,1005.55
2023-02-03T09:10:57.815Z,1005.50
2023-02-03T09:11:57.814Z,1005.50
2023-02-03T09:12:57.793Z,1005.41
2023-02-03T09:13:57.801Z,1005.52
2023-02-03T09:14:57.777Z,1005.47
2023-02-03T09:15:57.762Z,1005.55
2023-02-03T09:16:57.873Z,1005.51
2023-02-03T09:17:57.762Z,1005.47
2023-02-03T09:18:57.733Z,1005.45
2023-02-03T09:19:57.789Z,1005.37
2023-02-03T09:20:57.713Z,1005.34
2023-02-03T09:21:57.707Z,1005.40
2023-02-03T09:22:57.686Z,1005.32
2023-02-03T09:23:57.674Z,1005.34
2023-02-03T09:24:57.665Z,1005.39
2023-02-03T09:25:57.652Z,1005.30
2023-02-03T09:26:57.654Z,1005.35
2023-02-03T09:27:57.671Z,1005.43
2023-02-03T09:28:57.652Z,1005.39
2023-02-03T09:29:57.615Z,1005.39
2023-02-03T09:30:57.604Z,1005.27
2023-02-03T09:31:57.635Z,1005.31
2023-02-03T09:32:57.577Z,1005.26
2023-02-03T09:33:57.586Z,1005.30
2023-02-03T09:34:57.559Z,1005.25
2023-02-03T09:35:57.550Z,1005.24
2023-02-03T09:36:57.539Z,1005.16
2023-02-03T09:37:57.534Z,1005.20
2023-02-03T09:38:57.538Z,1005.14
2023-02-03T09:39:57.503Z,1005.04
2023-02-03T09:41:10.522Z,1005.07
2023-02-03T09:42:01.021Z,1005.03
2023-02-03T09:42:57.507Z,1004.98
2023-02-03T09:43:57.458Z,1004.99
2023-02-03T09:44:57.450Z,1005.02
2023-02-03T09:45:57.482Z,1005.07
2023-02-03T09:46:57.439Z,1004.95
2023-02-03T09:47:57.427Z,1004.97
2023-02-03T09:48:57.422Z,1004.98
2023-02-03T09:49:57.415Z,1004.97
2023-02-03T09:50:57.390Z,1004.87
2023-02-03T09:51:57.372Z,1004.94
2023-02-03T09:52:57.373Z,1004.88
2023-02-03T09:53:57.354Z,1004.90
2023-02-03T09:54:57.370Z,1004.89
2023-02-03T09:55:57.363Z,1004.82
2023-02-03T09:56:57.333Z,1004.85
2023-02-03T09:57:57.319Z,1004.82
2023-02-03T09:58:57.327Z,1004.80
2023-02-03T09:59:57.298Z,1004.81
2023-02-03T10:00:57.431Z,1004.91
2023-02-03T10:01:57.294Z,1004.86
2023-02-03T10:02:57.403Z,1004.77
2023-02-03T10:03:57.307Z,1004.63
2023-02-03T10:04:57.297Z,1004.59
2023-02-03T10:05:57.243Z,1004.55
2023-02-03T10:06:57.218Z,1004.48
2023-02-03T10:07:57.214Z,1004.44
2023-02-03T10:08:57.189Z,1004.60
2023-02-03T10:09:57.232Z,1004.44
2023-02-03T10:10:57.176Z,1004.40
2023-02-03T10:11:57.171Z,1004.40
2023-02-03T10:12:57.163Z,1004.24
2023-02-03T10:13:57.136Z,1004.28
2023-02-03T10:14:57.134Z,1004.23
2023-02-03T10:15:57.112Z,1004.13
2023-02-03T10:16:57.147Z,1004.06
2023-02-03T10:17:57.107Z,1003.94
2023-02-03T10:18:57.087Z,1004.05
2023-02-03T10:19:57.072Z,1004.03
2023-02-03T10:20:57.076Z,1004.02
2023-02-03T10:21:57.068Z,1003.92
2023-02-03T10:22:57.051Z,1004.00
2023-02-03T10:23:57.038Z,1004.01
2023-02-03T10:24:57.023Z,1004.04
2023-02-03T10:25:57.841Z,1004.04
2023-02-03T10:26:56.995Z,1003.95
2023-02-03T10:27:57.038Z,1003.93
2023-02-03T10:28:56.975Z,1004.02
2023-02-03T10:29:56.968Z,1003.98
2023-02-03T10:30:57.220Z,1004.00
2023-02-03T10:31:58.597Z,1004.05
2023-02-03T10:32:56.945Z,1004.14
2023-02-03T10:33:56.918Z,1004.07
2023-02-03T10:34:56.907Z,1004.14
2023-02-03T10:35:56.900Z,1004.11
2023-02-03T10:36:56.887Z,1004.04
2023-02-03T10:37:56.905Z,1004.08
2023-02-03T10:38:56.899Z,1004.10
2023-02-03T10:39:56.861Z,1004.19
2023-02-03T10:40:56.882Z,1004.15
2023-02-03T10:41:56.833Z,1004.18
2023-02-03T10:42:56.853Z,1004.14
2023-02-03T10:43:57.671Z,1004.16
2023-02-03T10:44:56.805Z,1004.27
2023-02-03T10:45:56.807Z,1004.33
2023-02-03T10:46:56.778Z,1004.46
2023-02-03T10:47:56.791Z,1004.66
2023-02-03T10:48:56.785Z,1004.64
2023-02-03T10:49:56.756Z,1005.02
2023-02-03T10:50:56.743Z,1005.13
2023-02-03T10:51:56.721Z,1005.17
2023-02-03T10:52:56.744Z,1005.16
2023-02-03T10:53:56.723Z,1005.34
2023-02-03T10:54:56.690Z,1004.93
2023-02-03T10:55:56.684Z,1005.17
2023-02-03T10:56:56.670Z,1005.06
2023-02-03T10:57:56.670Z,1005.15
2023-02-03T10:58:56.752Z,1005.07
2023-02-03T10:59:56.652Z,1005.12
2023-02-03T11:00:56.626Z,1005.10
2023-02-03T11:01:56.706Z,1004.98
2023-02-03T11:02:56.640Z,1005.00
2023-02-03T11:03:56.591Z,1005.03
2023-02-03T11:04:56.615Z,1005.01
2023-02-03T11:05:56.571Z,1005.07
2023-02-03T11:06:56.580Z,1005.03
2023-02-03T11:07:56.575Z,1004.85
2023-02-03T11:08:56.537Z,1005.05
2023-02-03T11:09:56.553Z,1005.07
2023-02-03T11:10:56.520Z,1005.12
2023-02-03T11:11:56.503Z,1004.99
2023-02-03T11:12:56.524Z,1005.18
2023-02-03T11:13:56.487Z,1004.99
2023-02-03T11:14:56.481Z,1005.07
2023-02-03T11:15:56.533Z,1004.99
2023-02-03T11:16:56.463Z,1005.02
2023-02-03T11:17:56.461Z,1004.95
2023-02-03T11:18:56.441Z,1004.98
2023-02-03T11:19:56.419Z,1004.91
2023-02-03T11:20:56.417Z,1005.01
2023-02-03T11:21:56.402Z,1005.01
2023-02-03T11:22:56.407Z,1004.70
2023-02-03T11:23:56.650Z,1004.97
2023-02-03T11:24:56.374Z,1004.97
2023-02-03T11:25:56.387Z,1004.95
2023-02-03T11:26:56.349Z,1004.88
2023-02-03T11:27:56.414Z,1004.81
2023-02-03T11:28:56.328Z,1004.71
2023-02-03T11:29:56.328Z,1004.81
2023-02-03T11:30:56.417Z,1004.70
2023-02-03T11:31:56.393Z,1004.64
2023-02-03T11:32:56.294Z,1004.80
2023-02-03T11:33:56.280Z,1004.75
2023-02-03T11:34:56.263Z,1004.81
2023-02-03T11:35:56.251Z,1004.63
2023-02-03T11:36:56.244Z,1004.74
2023-02-03T11:37:56.233Z,1004.72
2023-02-03T11:38:56.216Z,1004.87
2023-02-03T11:39:56.203Z,1004.74
2023-02-03T11:40:56.192Z,1004.89
2023-02-03T11:41:56.213Z,1004.91
2023-02-03T11:42:56.199Z,1004.78
2023-02-03T11:43:56.158Z,1004.98
2023-02-03T11:44:56.149Z,1005.04
2023-02-03T11:45:56.133Z,1004.97
2023-02-03T11:46:56.125Z,1004.99
2023-02-03T11:47:56.136Z,1004.93
2023-02-03T11:48:56.106Z,1004.99
2023-02-03T11:49:56.087Z,1004.98
2023-02-03T11:50:56.082Z,1004.98
2023-02-03T11:51:56.067Z,1004.96
2023-02-03T11:52:56.068Z,1004.97
2023-02-03T11:53:57.450Z,1004.91
2023-02-03T11:54:56.037Z,1004.96
2023-02-03T11:55:56.023Z,1004.85
2023-02-03T11:56:56.015Z,1004.90
2023-02-03T11:57:56.032Z,1005.03
2023-02-03T11:58:55.993Z,1005.04
2023-02-03T11:59:55.989Z,1005.05
2023-02-03T12:00:55.984Z,1005.01
2023-02-03T12:01:55.964Z,1004.77
2023-02-03T12:02:55.998Z,1004.99
2023-02-03T12:03:55.942Z,1004.94
2023-02-03T12:04:55.991Z,1005.02
2023-02-03T12:05:55.929Z,1005.04